Time;durP1;ratioP1;P1;durP2;ratioP2;P2;SDS_P1;SDS_P2;PMS_P1;PMS_P2;Temp;Humidity;BMP_temperature;BMP_pressure;BME280_temperature;BME280_humidity;BME280_pressure;Samples;Min_cycle;Max_cycle;Signal;HPM_P1;HPM_P2
2022/11/14 00:01:18;;;;;;;64.27;39.50;;;7.30;1.00;;;;;;6285669;28;20633;-54
2022/11/14 00:04:21;;;;;;;68.10;41.27;;;7.40;1.00;;;;;;6289189;28;20378;-54
2022/11/14 00:07:31;;;;;;;61.60;40.03;;;7.30;1.00;;;;;;6301107;28;20225;-54
2022/11/14 00:10:35;;;;;;;68.10;42.07;;;7.70;1.00;;;;;;6298663;28;20228;-54
2022/11/14 00:13:38;;;;;;;67.20;42.37;;;7.30;1.00;;;;;;6301048;28;20501;-53
2022/11/14 00:16:41;;;;;;;67.53;42.57;;;7.30;1.00;;;;;;6291851;28;20232;-56
2022/11/14 00:19:56;;;;;;;63.00;39.87;;;7.40;1.00;;;;;;6310952;28;20233;-55
2022/11/14 00:22:59;;;;;;;68.67;41.97;;;7.40;1.00;;;;;;6310494;28;20741;-54
2022/11/14 00:26:04;;;;;;;66.47;41.43;;;7.30;1.00;;;;;;6311839;28;20255;-53
2022/11/14 00:29:07;;;;;;;65.77;41.03;;;7.50;1.00;;;;;;6284521;28;20244;-54
2022/11/14 00:32:10;;;;;;;73.33;44.60;;;7.40;1.00;;;;;;6286450;28;20823;-54
2022/11/14 00:35:13;;;;;;;72.40;42.93;;;7.50;1.00;;;;;;6285940;28;20283;-53
2022/11/14 00:38:16;;;;;;;69.43;42.70;;;7.50;1.00;;;;;;6297013;28;20259;-54
2022/11/14 00:41:20;;;;;;;74.97;43.27;;;7.50;1.00;;;;;;6302121;28;20232;-54
2022/11/14 00:44:23;;;;;;;71.00;42.80;;;7.30;1.00;;;;;;6281175;28;20241;-53
2022/11/14 00:47:26;;;;;;;68.87;42.23;;;7.30;1.00;;;;;;6287271;28;20744;-55
2022/11/14 00:50:29;;;;;;;74.80;44.13;;;7.30;1.00;;;;;;6282113;28;20248;-54
2022/11/14 00:53:32;;;;;;;70.40;41.60;;;7.30;1.00;;;;;;6283673;28;20256;-54
2022/11/14 00:56:36;;;;;;;66.83;41.40;;;7.20;1.00;;;;;;6285649;28;20236;-54
2022/11/14 00:59:45;;;;;;;70.57;44.77;;;7.30;1.00;;;;;;6285583;28;20237;-54
2022/11/14 01:02:55;;;;;;;73.27;43.23;;;7.50;1.00;;;;;;6287532;28;20248;-54
2022/11/14 01:06:04;;;;;;;73.77;43.13;;;7.20;1.00;;;;;;6285065;28;20264;-54
2022/11/14 01:09:08;;;;;;;79.00;45.47;;;7.40;1.00;;;;;;6305119;28;20687;-53
2022/11/14 01:12:13;;;;;;;72.63;43.80;;;7.30;1.00;;;;;;6296843;28;20233;-54
2022/11/14 01:15:16;;;;;;;76.07;42.63;;;7.10;1.00;;;;;;6308585;28;20783;-53
2022/11/14 01:18:21;;;;;;;79.13;44.87;;;7.10;1.00;;;;;;6290037;28;20233;-52
2022/11/14 01:21:25;;;;;;;80.20;46.17;;;7.20;1.00;;;;;;6284557;28;20241;-53
2022/11/14 01:24:28;;;;;;;79.27;45.00;;;7.40;1.00;;;;;;6283577;28;20241;-53
2022/11/14 01:27:33;;;;;;;77.03;44.50;;;7.20;1.00;;;;;;6283434;28;20233;-53
2022/11/14 01:30:36;;;;;;;81.53;44.97;;;7.00;1.00;;;;;;6283215;28;20239;-54
2022/11/14 01:33:39;;;;;;;86.43;44.13;;;7.10;1.00;;;;;;6282570;28;20237;-53
2022/11/14 01:36:44;;;;;;;86.87;45.80;;;7.00;1.00;;;;;;6284363;28;20229;-53
2022/11/14 01:39:48;;;;;;;79.17;44.50;;;7.10;1.00;;;;;;6300130;28;20240;-54
2022/11/14 01:43:25;;;;;;;79.07;44.87;;;6.90;1.00;;;;;;6300033;28;20245;-53
2022/11/14 01:46:32;;;;;;;78.23;43.30;;;6.90;1.00;;;;;;6291917;28;20335;-54
2022/11/14 01:49:39;;;;;;;83.33;44.47;;;6.80;1.00;;;;;;6290207;28;20491;-53
2022/11/14 01:52:42;;;;;;;77.33;44.20;;;6.90;1.00;;;;;;6275390;28;20244;-54
2022/11/14 01:55:46;;;;;;;85.77;46.00;;;6.80;1.00;;;;;;6282403;28;20244;-55
2022/11/14 01:58:54;;;;;;;82.83;45.40;;;6.80;1.00;;;;;;6282534;28;20235;-54
2022/11/14 02:02:02;;;;;;;84.30;45.07;;;7.00;1.00;;;;;;6283387;28;20229;-55
2022/11/14 02:05:08;;;;;;;92.50;47.87;;;6.90;1.00;;;;;;6282252;28;20229;-54
2022/11/14 02:08:15;;;;;;;85.43;48.27;;;6.80;1.00;;;;;;6293347;28;20237;-53
2022/11/14 02:11:18;;;;;;;81.93;46.00;;;7.00;1.00;;;;;;6292666;28;20269;-54
2022/11/14 02:14:30;;;;;;;81.03;43.57;;;7.00;1.00;;;;;;6290002;28;20618;-54
2022/11/14 02:17:33;;;;;;;86.07;44.33;;;7.20;1.00;;;;;;6304052;28;20401;-56
2022/11/14 02:20:42;;;;;;;83.23;43.97;;;7.30;1.00;;;;;;6306484;28;20278;-54
2022/11/14 02:23:45;;;;;;;85.07;45.67;;;6.80;1.00;;;;;;6283934;28;20241;-53
2022/11/14 02:26:48;;;;;;;84.73;44.53;;;7.10;1.00;;;;;;6281925;28;20244;-54
2022/11/14 02:29:51;;;;;;;87.00;45.87;;;7.00;1.00;;;;;;6283073;28;20476;-54
2022/11/14 02:32:54;;;;;;;87.57;45.63;;;6.90;1.00;;;;;;6281822;28;20236;-55
2022/11/14 02:36:15;;;;;;;85.00;45.10;;;7.10;1.00;;;;;;6280542;28;20352;-55
2022/11/14 02:39:18;;;;;;;85.53;45.33;;;7.00;1.00;;;;;;6296196;28;20502;-53
2022/11/14 02:42:21;;;;;;;85.30;45.83;;;7.00;1.00;;;;;;6299172;28;20233;-53
2022/11/14 02:45:24;;;;;;;84.07;43.30;;;7.00;1.00;;;;;;6281790;28;20233;-54
2022/11/14 02:48:27;;;;;;;84.00;45.07;;;7.00;1.00;;;;;;6280927;28;20233;-53
2022/11/14 02:51:31;;;;;;;89.73;45.80;;;7.00;1.00;;;;;;6281392;28;20233;-54
2022/11/14 02:54:34;;;;;;;86.13;44.37;;;6.90;1.00;;;;;;6281244;28;20247;-53
2022/11/14 02:57:37;;;;;;;83.10;44.17;;;7.10;1.00;;;;;;6281324;28;20244;-53
2022/11/14 03:00:40;;;;;;;82.43;43.77;;;7.00;1.00;;;;;;6282065;28;20248;-55
2022/11/14 03:04:16;;;;;;;85.57;43.60;;;6.90;1.00;;;;;;6277781;28;20241;-54
2022/11/14 03:07:22;;;;;;;81.90;44.27;;;7.00;1.00;;;;;;6287887;28;20644;-54
2022/11/14 03:10:26;;;;;;;84.87;42.67;;;6.80;1.00;;;;;;6289611;28;20714;-55
2022/11/14 03:13:30;;;;;;;83.77;43.97;;;7.00;1.00;;;;;;6292084;28;20248;-54
2022/11/14 03:16:32;;;;;;;86.60;44.97;;;6.90;1.00;;;;;;6286511;28;20678;-53
2022/11/14 03:19:35;;;;;;;74.27;41.77;;;7.10;1.00;;;;;;6285043;28;20593;-54
2022/11/14 03:22:40;;;;;;;80.47;44.23;;;6.90;1.00;;;;;;6286936;28;20284;-54
2022/11/14 03:25:43;;;;;;;78.43;43.37;;;7.00;1.00;;;;;;6286320;28;20240;-54
2022/11/14 03:28:46;;;;;;;77.80;41.70;;;7.00;1.00;;;;;;6284232;28;20233;-54
2022/11/14 03:31:49;;;;;;;78.30;44.33;;;7.00;1.00;;;;;;6286848;28;20237;-55
2022/11/14 03:34:52;;;;;;;75.83;42.07;;;7.10;1.00;;;;;;6286135;28;20614;-54
2022/11/14 03:37:57;;;;;;;84.33;43.97;;;7.20;1.00;;;;;;6297473;28;20814;-55
2022/11/14 03:41:02;;;;;;;81.80;43.60;;;7.10;1.00;;;;;;6296623;28;20229;-54
2022/11/14 03:44:05;;;;;;;85.33;43.57;;;7.30;1.00;;;;;;6308043;28;20475;-54
2022/11/14 03:47:08;;;;;;;78.40;40.83;;;7.00;1.00;;;;;;6305048;28;20627;-55
2022/11/14 03:50:11;;;;;;;74.43;42.67;;;7.20;1.00;;;;;;6292205;28;20237;-53
2022/11/14 03:53:15;;;;;;;89.47;45.30;;;7.10;1.00;;;;;;6285284;28;20245;-56
2022/11/14 03:56:18;;;;;;;84.10;41.80;;;6.90;1.00;;;;;;6286093;28;20252;-54
2022/11/14 03:59:21;;;;;;;83.20;41.13;;;6.80;1.00;;;;;;6286031;28;20233;-54
2022/11/14 04:02:24;;;;;;;79.83;42.53;;;6.70;1.00;;;;;;6285609;28;20237;-53
2022/11/14 04:05:27;;;;;;;76.27;40.47;;;6.90;1.00;;;;;;6285282;28;20237;-55
2022/11/14 04:08:31;;;;;;;77.20;41.77;;;6.80;1.00;;;;;;6293743;28;20229;-54
2022/11/14 04:11:36;;;;;;;79.67;41.27;;;6.80;1.00;;;;;;6300304;28;20466;-54
2022/11/14 04:14:39;;;;;;;80.97;41.97;;;6.90;1.00;;;;;;6293353;28;20232;-55
2022/11/14 04:17:43;;;;;;;79.20;41.70;;;6.80;1.00;;;;;;6287588;28;20233;-53
2022/11/14 04:20:46;;;;;;;81.87;42.77;;;6.80;1.00;;;;;;6283857;28;20233;-54
2022/11/14 04:23:50;;;;;;;85.57;41.53;;;6.90;1.00;;;;;;6284971;28;20753;-54
2022/11/14 04:26:53;;;;;;;85.33;43.77;;;6.80;1.00;;;;;;6283853;28;20240;-54
2022/11/14 04:29:56;;;;;;;92.60;44.97;;;6.60;1.00;;;;;;6283755;28;20605;-54
2022/11/14 04:33:02;;;;;;;90.27;43.40;;;6.90;1.00;;;;;;6276113;28;20795;-52
2022/11/14 04:36:06;;;;;;;82.23;42.47;;;6.50;1.00;;;;;;6291385;28;20374;-54
2022/11/14 04:39:10;;;;;;;88.17;43.00;;;6.80;1.00;;;;;;6292997;28;20594;-53
2022/11/14 04:42:14;;;;;;;88.83;44.60;;;6.90;1.00;;;;;;6297446;28;20744;-54
2022/11/14 04:45:18;;;;;;;93.50;44.30;;;6.70;1.00;;;;;;6294623;28;20259;-52
2022/11/14 04:48:33;;;;;;;91.80;44.90;;;6.80;1.00;;;;;;6288798;28;20290;-54
2022/11/14 04:51:36;;;;;;;87.57;46.27;;;6.60;1.00;;;;;;6300019;28;20228;-53
2022/11/14 04:54:41;;;;;;;92.70;43.13;;;6.70;1.00;;;;;;6296405;28;20245;-54
2022/11/14 04:57:44;;;;;;;103.03;47.30;;;6.50;1.00;;;;;;6296115;28;20232;-55
2022/11/14 05:00:47;;;;;;;96.97;47.57;;;6.50;1.00;;;;;;6293275;28;20828;-54
2022/11/14 05:03:50;;;;;;;89.73;44.03;;;6.40;1.00;;;;;;6287270;28;20729;-53
2022/11/14 05:06:53;;;;;;;93.60;44.67;;;6.40;1.00;;;;;;6286753;28;20420;-53
2022/11/14 05:09:57;;;;;;;99.83;45.33;;;6.50;1.00;;;;;;6291371;27;20239;-53
2022/11/14 05:13:00;;;;;;;85.87;42.57;;;6.90;1.00;;;;;;6288074;28;20342;-54
2022/11/14 05:16:03;;;;;;;90.57;43.17;;;6.60;1.00;;;;;;6297711;28;20233;-54
2022/11/14 05:19:06;;;;;;;93.50;44.63;;;6.60;1.00;;;;;;6272937;28;20397;-52
2022/11/14 05:22:09;;;;;;;101.10;44.17;;;6.50;1.00;;;;;;6289016;28;20241;-52
2022/11/14 05:25:16;;;;;;;97.70;43.57;;;6.90;1.00;;;;;;6304420;28;20237;-54
2022/11/14 05:28:19;;;;;;;93.40;42.63;;;6.80;1.00;;;;;;6285892;28;20257;-55
2022/11/14 05:31:29;;;;;;;92.03;43.60;;;6.50;1.00;;;;;;6289456;28;20241;-54
2022/11/14 05:34:32;;;;;;;95.43;44.73;;;6.70;1.00;;;;;;6289058;28;20240;-53
2022/11/14 05:37:35;;;;;;;95.00;43.30;;;6.70;1.00;;;;;;6286634;28;20229;-53
2022/11/14 05:40:40;;;;;;;90.73;45.67;;;6.50;1.00;;;;;;6295513;28;20331;-53
2022/11/14 05:43:43;;;;;;;91.30;42.67;;;6.50;1.00;;;;;;6295320;28;20738;-53
2022/11/14 05:46:46;;;;;;;86.13;44.50;;;6.60;1.00;;;;;;6300386;28;20535;-53
2022/11/14 05:49:49;;;;;;;94.87;44.40;;;6.60;1.00;;;;;;6293006;28;20617;-54
2022/11/14 05:52:52;;;;;;;89.57;42.60;;;6.90;1.00;;;;;;6300048;28;20367;-54
2022/11/14 05:56:00;;;;;;;90.47;44.23;;;6.80;1.00;;;;;;6297447;28;20240;-53
2022/11/14 05:59:06;;;;;;;88.40;41.80;;;6.70;1.00;;;;;;6290369;28;20228;-54
2022/11/14 06:02:09;;;;;;;95.83;45.70;;;6.80;1.00;;;;;;6296265;28;20256;-54
2022/11/14 06:05:12;;;;;;;80.43;41.40;;;6.70;1.00;;;;;;6294657;28;20244;-54
2022/11/14 06:08:15;;;;;;;86.73;42.70;;;7.00;1.00;;;;;;6287500;28;20584;-53
2022/11/14 06:11:21;;;;;;;92.80;42.90;;;6.70;1.00;;;;;;6297945;28;20241;-55
2022/11/14 06:14:34;;;;;;;90.73;44.50;;;6.60;1.00;;;;;;6302447;28;20374;-53
2022/11/14 06:17:37;;;;;;;83.43;42.67;;;6.70;1.00;;;;;;6297711;28;20240;-54
2022/11/14 06:20:40;;;;;;;95.47;43.40;;;6.50;1.00;;;;;;6302282;28;20648;-54
2022/11/14 06:23:43;;;;;;;84.60;42.23;;;6.60;1.00;;;;;;6304341;28;20241;-54
2022/11/14 06:26:49;;;;;;;83.70;41.90;;;6.90;1.00;;;;;;6288167;28;20520;-54
2022/11/14 06:29:52;;;;;;;87.40;42.57;;;6.90;1.00;;;;;;6305400;28;20343;-54
2022/11/14 06:32:57;;;;;;;86.90;40.57;;;6.90;1.00;;;;;;6299825;28;20612;-54
2022/11/14 06:36:02;;;;;;;82.57;41.83;;;6.70;1.00;;;;;;6292673;28;20357;-54
2022/11/14 06:39:05;;;;;;;85.00;41.80;;;6.70;1.00;;;;;;6284794;28;20225;-54
2022/11/14 06:42:16;;;;;;;88.17;41.77;;;6.70;1.00;;;;;;6288806;28;20237;-54
2022/11/14 06:45:19;;;;;;;95.37;43.90;;;6.60;1.00;;;;;;6295171;28;20834;-53
2022/11/14 06:48:22;;;;;;;87.07;41.40;;;6.40;1.00;;;;;;6288173;28;20244;-53
2022/11/14 06:51:25;;;;;;;91.07;42.47;;;6.50;1.00;;;;;;6286070;28;20237;-54
2022/11/14 06:54:28;;;;;;;81.47;40.37;;;6.70;1.00;;;;;;6288206;28;20252;-54
2022/11/14 06:57:32;;;;;;;88.03;43.13;;;6.50;1.00;;;;;;6281788;28;20236;-54
2022/11/14 07:00:35;;;;;;;87.03;42.37;;;6.50;1.00;;;;;;6295294;28;20244;-53
2022/11/14 07:03:39;;;;;;;84.80;43.03;;;6.50;1.00;;;;;;6292132;28;20609;-54
2022/11/14 07:06:42;;;;;;;92.40;43.53;;;6.60;1.00;;;;;;6293145;28;20232;-55
2022/11/14 07:09:45;;;;;;;93.53;42.33;;;6.80;1.00;;;;;;6290703;28;20232;-57
2022/11/14 07:12:51;;;;;;;92.93;43.33;;;6.50;1.00;;;;;;6303027;28;20240;-53
2022/11/14 07:15:55;;;;;;;89.90;42.40;;;6.70;1.00;;;;;;6295830;28;20241;-55
2022/11/14 07:18:59;;;;;;;84.07;42.13;;;6.70;1.00;;;;;;6291681;28;20259;-53
2022/11/14 07:22:02;;;;;;;88.83;43.43;;;6.50;1.00;;;;;;6286435;28;20246;-54
2022/11/14 07:25:05;;;;;;;84.60;40.20;;;6.70;1.00;;;;;;6293357;28;20611;-55
2022/11/14 07:28:10;;;;;;;85.70;43.53;;;6.60;1.00;;;;;;6286519;28;20240;-54
2022/11/14 07:31:15;;;;;;;85.10;40.40;;;6.50;1.00;;;;;;6281935;28;20247;-54
2022/11/14 07:34:18;;;;;;;87.77;42.30;;;6.70;1.00;;;;;;6295221;28;20678;-54
2022/11/14 07:37:21;;;;;;;84.03;39.37;;;6.70;1.00;;;;;;6294922;28;20244;-54
2022/11/14 07:40:35;;;;;;;80.57;40.23;;;6.50;1.00;;;;;;6294997;28;20324;-55
2022/11/14 07:43:40;;;;;;;84.87;39.97;;;6.80;1.00;;;;;;6291230;28;20233;-54
2022/11/14 07:46:43;;;;;;;84.37;40.27;;;6.60;1.00;;;;;;6291813;28;20232;-54
2022/11/14 07:49:46;;;;;;;84.37;39.77;;;6.60;1.00;;;;;;6285209;28;20237;-55
2022/11/14 07:52:51;;;;;;;80.50;40.97;;;6.70;1.00;;;;;;6292448;28;20252;-53
2022/11/14 07:55:54;;;;;;;81.87;40.63;;;6.60;1.00;;;;;;6284913;28;20237;-54
2022/11/14 07:58:58;;;;;;;84.00;39.93;;;6.60;1.00;;;;;;6293664;28;20244;-54
2022/11/14 08:02:05;;;;;;;78.57;38.83;;;6.60;1.00;;;;;;6293303;28;20237;-55
2022/11/14 08:05:08;;;;;;;81.77;39.87;;;6.80;1.00;;;;;;6294615;28;20241;-53
2022/11/14 08:08:20;;;;;;;85.03;40.73;;;6.80;1.00;;;;;;6297330;28;20241;-54
2022/11/14 08:14:41;;;;;;;82.23;38.80;;;7.00;1.00;;;;;;6294530;28;20744;-54
2022/11/14 08:17:45;;;;;;;84.27;41.50;;;7.00;1.00;;;;;;6296678;27;20237;-53
2022/11/14 08:20:48;;;;;;;69.23;38.17;;;6.90;1.00;;;;;;6295404;28;20240;-53
2022/11/14 08:23:51;;;;;;;77.93;38.33;;;7.00;1.00;;;;;;6300821;28;20241;-54
2022/11/14 08:26:53;;;;;;;74.07;38.43;;;7.20;1.00;;;;;;6287822;28;20305;-54
2022/11/14 08:29:58;;;;;;;78.47;40.37;;;6.90;1.00;;;;;;6295267;28;20737;-54
2022/11/14 08:33:07;;;;;;;82.93;38.33;;;7.10;1.00;;;;;;6288848;28;20243;-54
2022/11/14 08:36:11;;;;;;;74.13;38.63;;;7.00;1.00;;;;;;6289150;28;20242;-53
2022/11/14 08:39:14;;;;;;;82.20;39.53;;;6.90;1.00;;;;;;6288088;28;20725;-52
2022/11/14 08:42:17;;;;;;;80.43;38.20;;;7.00;1.00;;;;;;6290285;28;20252;-53
2022/11/14 08:45:21;;;;;;;80.50;38.07;;;7.30;1.00;;;;;;6286239;28;20234;-53
2022/11/14 08:48:24;;;;;;;80.33;40.47;;;7.10;1.00;;;;;;6297686;28;20252;-53
2022/11/14 08:51:28;;;;;;;69.47;36.83;;;7.20;1.00;;;;;;6285441;28;20246;-54
2022/11/14 08:54:31;;;;;;;78.60;38.00;;;7.30;1.00;;;;;;6292936;28;20246;-54
2022/11/14 08:57:34;;;;;;;76.90;39.23;;;7.10;1.00;;;;;;6299975;28;20247;-53
2022/11/14 09:00:39;;;;;;;75.73;38.60;;;7.20;1.00;;;;;;6300900;28;20380;-53
2022/11/14 09:03:42;;;;;;;74.33;37.57;;;7.20;1.00;;;;;;6298397;28;20598;-53
2022/11/14 09:06:45;;;;;;;75.53;37.97;;;7.30;1.00;;;;;;6297979;28;20236;-54
2022/11/14 09:09:48;;;;;;;75.50;38.87;;;7.30;1.00;;;;;;6297934;28;20241;-54
2022/11/14 09:12:55;;;;;;;72.60;37.23;;;7.70;1.00;;;;;;6297091;28;20236;-54
2022/11/14 09:16:00;;;;;;;67.87;35.70;;;7.80;1.00;;;;;;6289005;28;20296;-53
2022/11/14 09:19:03;;;;;;;68.07;36.13;;;7.80;1.00;;;;;;6299871;28;20249;-54
2022/11/14 09:22:06;;;;;;;66.60;35.70;;;7.90;1.00;;;;;;6297646;28;20714;-53
2022/11/14 09:25:09;;;;;;;67.87;34.27;;;8.00;1.00;;;;;;6299928;28;20622;-53
2022/11/14 09:28:12;;;;;;;73.13;36.13;;;8.20;1.00;;;;;;6299606;28;20241;-54
2022/11/14 09:31:17;;;;;;;61.50;34.13;;;8.20;1.00;;;;;;6296385;28;20251;-54
2022/11/14 09:34:21;;;;;;;75.00;34.67;;;8.30;1.00;;;;;;6297958;28;20236;-54
2022/11/14 09:37:24;;;;;;;66.47;34.50;;;8.30;1.00;;;;;;6289136;28;20752;-54
2022/11/14 09:40:27;;;;;;;67.27;35.43;;;8.50;1.00;;;;;;6298328;28;20229;-54
2022/11/14 09:43:47;;;;;;;63.17;34.07;;;8.50;1.00;;;;;;6295091;28;20229;-55
2022/11/14 09:46:56;;;;;;;65.43;34.77;;;8.70;1.00;;;;;;6292550;28;20221;-55
2022/11/14 09:50:06;;;;;;;65.73;34.37;;;8.60;1.00;;;;;;6285388;28;20276;-55
2022/11/14 09:53:18;;;;;;;61.17;32.67;;;8.70;1.00;;;;;;6296989;28;20624;-61
2022/11/14 09:56:24;;;;;;;56.27;32.53;;;8.80;1.00;;;;;;6286228;28;20233;-54
2022/11/14 09:59:27;;;;;;;66.60;32.40;;;9.00;1.00;;;;;;6289206;28;20482;-53
2022/11/14 10:02:43;;;;;;;64.27;32.87;;;9.10;1.00;;;;;;6296825;28;20308;-53
2022/11/14 10:06:09;;;;;;;57.37;32.43;;;9.20;1.00;;;;;;6297187;28;20320;-55
2022/11/14 10:09:38;;;;;;;51.60;31.70;;;9.20;1.00;;;;;;6284621;28;20302;-54
2022/11/14 10:12:49;;;;;;;61.97;32.93;;;9.30;1.00;;;;;;6293682;28;20235;-54
2022/11/14 10:15:58;;;;;;;55.13;31.60;;;9.50;1.00;;;;;;6288848;28;20354;-54
2022/11/14 10:19:17;;;;;;;56.67;31.63;;;9.60;1.00;;;;;;6290525;28;20812;-55
2022/11/14 10:22:33;;;;;;;56.67;33.13;;;9.70;1.00;;;;;;6298778;28;20264;-55
2022/11/14 10:25:47;;;;;;;56.50;31.40;;;9.80;1.00;;;;;;6295443;28;20240;-53
2022/11/14 10:29:06;;;;;;;54.73;31.93;;;9.90;1.00;;;;;;6291824;28;20284;-55
2022/11/14 10:32:20;;;;;;;51.37;31.73;;;10.00;1.00;;;;;;6286466;28;20872;-54
2022/11/14 10:35:29;;;;;;;58.53;30.67;;;10.10;1.00;;;;;;6293627;28;20233;-54
2022/11/14 10:38:41;;;;;;;53.83;32.90;;;10.10;1.00;;;;;;6287658;28;20233;-53
2022/11/14 10:41:47;;;;;;;51.50;29.87;;;10.20;1.00;;;;;;6301021;28;20236;-53
2022/11/14 10:45:23;;;;;;;56.70;30.93;;;10.30;1.00;;;;;;6296471;28;20294;-54
2022/11/14 10:48:31;;;;;;;51.60;31.27;;;10.40;1.00;;;;;;6290740;28;20236;-54
2022/11/14 10:51:40;;;;;;;54.70;31.33;;;10.30;1.00;;;;;;6284003;28;20233;-55
2022/11/14 10:54:49;;;;;;;52.43;30.63;;;10.40;1.00;;;;;;6291383;28;20233;-54
2022/11/14 10:57:52;;;;;;;52.47;30.73;;;10.60;1.00;;;;;;6290212;28;20260;-55
2022/11/14 11:00:55;;;;;;;47.67;29.73;;;10.60;1.00;;;;;;6292039;28;20241;-54
2022/11/14 11:03:58;;;;;;;53.13;30.90;;;10.70;1.00;;;;;;6290582;28;20525;-54
2022/11/14 11:14:19;;;;;;;48.23;29.80;;;10.90;1.00;;;;;;6245596;28;20440;-56
2022/11/14 11:17:23;;;;;;;49.07;29.00;;;11.00;1.00;;;;;;6286692;28;20237;-54
2022/11/14 11:20:37;;;;;;;52.67;30.50;;;11.00;1.00;;;;;;6287343;28;20237;-53
2022/11/14 11:23:51;;;;;;;47.07;29.00;;;11.00;1.00;;;;;;6285983;28;20243;-54
2022/11/14 11:27:13;;;;;;;51.40;29.47;;;11.10;1.00;;;;;;6299199;28;20241;-55
2022/11/14 11:30:19;;;;;;;42.03;27.63;;;11.10;1.00;;;;;;6298247;28;20233;-55
2022/11/14 11:33:27;;;;;;;48.57;28.70;;;11.20;1.00;;;;;;6287250;28;20241;-56
2022/11/14 11:36:43;;;;;;;45.67;29.33;;;11.30;1.00;;;;;;6295094;28;20251;-53
2022/11/14 11:39:52;;;;;;;46.23;28.03;;;11.30;1.00;;;;;;6307226;28;20241;-55
2022/11/14 11:43:02;;;;;;;41.50;29.60;;;11.30;1.00;;;;;;6306879;28;20244;-54
2022/11/14 11:46:32;;;;;;;40.13;28.17;;;11.40;1.00;;;;;;6299290;28;20248;-54
2022/11/14 11:49:44;;;;;;;45.30;29.50;;;11.50;1.00;;;;;;6300536;28;20248;-55
2022/11/14 11:53:12;;;;;;;42.23;26.93;;;11.40;1.00;;;;;;6293405;28;20241;-58
2022/11/14 11:56:21;;;;;;;42.63;27.63;;;11.50;1.00;;;;;;6302666;28;20237;-54
2022/11/14 11:59:33;;;;;;;34.67;24.80;;;11.60;1.00;;;;;;6292725;28;20259;-53
2022/11/14 12:02:41;;;;;;;36.20;24.73;;;11.60;1.00;;;;;;6296479;28;20229;-55
2022/11/14 12:06:02;;;;;;;39.87;24.67;;;11.50;1.00;;;;;;6301915;28;20291;-55
2022/11/14 12:09:14;;;;;;;35.20;24.87;;;11.50;1.00;;;;;;6297558;28;20233;-54
2022/11/14 12:12:28;;;;;;;36.97;25.77;;;11.60;1.00;;;;;;6288556;28;20245;-55
2022/11/14 12:15:41;;;;;;;40.23;25.43;;;11.70;1.00;;;;;;6301382;28;20613;-53
2022/11/14 12:18:58;;;;;;;39.67;25.47;;;11.70;1.00;;;;;;6298651;28;20598;-53
2022/11/14 12:22:15;;;;;;;33.37;24.17;;;11.70;1.00;;;;;;6302016;28;20236;-58
2022/11/14 12:25:41;;;;;;;37.93;23.80;;;11.70;1.00;;;;;;6299666;28;20249;-53
2022/11/14 12:28:58;;;;;;;38.57;25.53;;;11.70;1.00;;;;;;6294927;28;20734;-53
2022/11/14 12:32:06;;;;;;;35.73;24.70;;;11.80;1.00;;;;;;6295346;28;20228;-53
2022/11/14 12:35:17;;;;;;;38.97;26.27;;;11.80;1.00;;;;;;6294799;28;20585;-54
2022/11/14 12:38:21;;;;;;;31.13;22.20;;;11.80;1.00;;;;;;6302898;28;20304;-53
2022/11/14 12:41:27;;;;;;;33.43;24.40;;;11.80;1.00;;;;;;6298712;28;20243;-54
2022/11/14 12:44:36;;;;;;;37.57;24.53;;;11.80;1.00;;;;;;6297983;28;21775;-54
2022/11/14 12:48:16;;;;;;;33.23;24.97;;;11.90;1.00;;;;;;6292141;28;20229;-56
2022/11/14 12:51:48;;;;;;;33.70;23.90;;;11.90;1.00;;;;;;6293534;28;20244;-54
2022/11/14 12:54:51;;;;;;;33.93;24.97;;;11.90;1.00;;;;;;6289481;27;20233;-55
2022/11/14 12:58:04;;;;;;;34.33;24.63;;;11.90;1.00;;;;;;6303893;28;20229;-55
2022/11/14 13:01:22;;;;;;;34.63;24.30;;;11.80;1.00;;;;;;6295152;28;20403;-53
2022/11/14 13:04:34;;;;;;;36.07;23.50;;;11.80;1.00;;;;;;6297354;28;20237;-54
2022/11/14 13:08:00;;;;;;;33.90;22.77;;;11.80;1.00;;;;;;6289654;28;20237;-55
2022/11/14 13:22:19;;;;;;;31.13;22.67;;;11.80;1.00;;;;;;6296987;28;20240;-55
2022/11/14 13:25:23;;;;;;;26.87;21.40;;;11.80;1.00;;;;;;6294983;28;20229;-54
2022/11/14 13:28:47;;;;;;;29.73;21.63;;;11.80;1.00;;;;;;6282302;28;20250;-53
2022/11/14 13:31:51;;;;;;;28.57;22.03;;;11.80;1.00;;;;;;6288252;28;20278;-54
2022/11/14 13:35:02;;;;;;;28.10;20.67;;;11.70;1.00;;;;;;6295274;28;20259;-54
2022/11/14 13:38:45;;;;;;;28.47;21.63;;;11.70;1.00;;;;;;6295153;28;20241;-54
2022/11/14 13:42:19;;;;;;;29.57;22.60;;;11.70;1.00;;;;;;6277244;28;20239;-54
2022/11/14 13:45:48;;;;;;;24.77;20.57;;;11.60;1.00;;;;;;6299993;28;20243;-53
2022/11/14 13:49:18;;;;;;;25.50;21.63;;;11.60;1.00;;;;;;6293368;28;20230;-54
2022/11/14 13:52:24;;;;;;;23.77;19.73;;;11.60;1.00;;;;;;6298789;28;20236;-55
2022/11/14 13:55:54;;;;;;;27.23;20.93;;;11.50;1.00;;;;;;6298253;28;20241;-52
2022/11/14 13:59:27;;;;;;;25.40;21.03;;;11.60;1.00;;;;;;6294313;28;20233;-55
2022/11/14 14:03:02;;;;;;;29.40;21.27;;;11.50;1.00;;;;;;6290729;28;20733;-55
2022/11/14 14:06:17;;;;;;;27.33;21.67;;;11.40;1.00;;;;;;6291426;28;20232;-55
2022/11/14 14:09:32;;;;;;;25.43;21.50;;;11.30;1.00;;;;;;6300592;28;20364;-55
2022/11/14 14:12:58;;;;;;;24.90;19.90;;;11.20;1.00;;;;;;6295938;28;20229;-53
2022/11/14 14:16:07;;;;;;;25.17;19.47;;;11.20;1.00;;;;;;6287596;28;20237;-55
2022/11/14 14:19:21;;;;;;;27.83;21.00;;;11.20;1.00;;;;;;6291900;28;20241;-53
2022/11/14 14:22:38;;;;;;;25.77;20.50;;;11.10;1.00;;;;;;6286169;28;20326;-56
2022/11/14 14:25:51;;;;;;;24.17;20.50;;;11.10;1.00;;;;;;6294739;28;20238;-55
2022/11/14 14:29:01;;;;;;;26.20;20.57;;;11.00;1.00;;;;;;6282846;28;20233;-54
2022/11/14 14:32:13;;;;;;;26.23;20.73;;;11.00;1.00;;;;;;6302325;28;20323;-54
2022/11/14 14:35:24;;;;;;;23.43;20.33;;;10.90;1.00;;;;;;6289873;28;20744;-56
2022/11/14 14:38:28;;;;;;;29.63;21.27;;;10.80;1.00;;;;;;6297155;28;20248;-54
2022/11/14 14:41:35;;;;;;;23.13;19.17;;;10.80;1.00;;;;;;6287814;28;20240;-55
2022/11/14 14:44:39;;;;;;;25.17;20.03;;;10.70;1.00;;;;;;6286980;28;20240;-55
2022/11/14 14:47:44;;;;;;;21.27;19.00;;;10.60;1.00;;;;;;6285233;28;20232;-55
2022/11/14 14:50:50;;;;;;;25.03;20.43;;;10.60;1.00;;;;;;6291751;28;20257;-55
2022/11/14 14:53:54;;;;;;;27.90;20.53;;;10.50;1.00;;;;;;6281697;28;20233;-53
2022/11/14 14:57:00;;;;;;;23.60;20.47;;;10.50;1.00;;;;;;6294437;28;20402;-55
2022/11/14 15:00:07;;;;;;;24.90;20.43;;;10.40;1.00;;;;;;6285178;28;20239;-55
2022/11/14 15:03:10;;;;;;;25.93;20.97;;;10.40;1.00;;;;;;6287573;28;20634;-53
2022/11/14 15:06:28;;;;;;;30.23;22.03;;;10.40;1.00;;;;;;6290778;28;20384;-54
2022/11/14 15:09:33;;;;;;;28.80;20.50;;;10.30;1.00;;;;;;6283389;28;20269;-54
2022/11/14 15:12:41;;;;;;;29.57;22.80;;;10.20;1.00;;;;;;6295432;28;20237;-55
2022/11/14 15:15:44;;;;;;;29.70;24.73;;;10.20;1.00;;;;;;6293606;28;20509;-54
2022/11/14 15:18:50;;;;;;;26.37;21.17;;;10.20;1.00;;;;;;6289651;28;20232;-55
2022/11/14 15:22:04;;;;;;;34.17;23.07;;;10.10;1.00;;;;;;6291221;28;20229;-55
2022/11/14 15:25:19;;;;;;;33.17;24.27;;;10.00;1.00;;;;;;6286502;28;20600;-56
2022/11/14 15:28:23;;;;;;;36.17;25.13;;;10.00;1.00;;;;;;6293833;28;20233;-55
2022/11/14 15:31:26;;;;;;;33.50;25.30;;;9.90;1.00;;;;;;6300553;28;20236;-54
2022/11/14 15:34:31;;;;;;;36.03;26.90;;;9.90;1.00;;;;;;6292846;28;20625;-55
2022/11/14 15:37:34;;;;;;;34.37;26.77;;;9.80;1.00;;;;;;6306349;28;20632;-54
2022/11/14 15:40:39;;;;;;;36.73;26.00;;;9.80;1.00;;;;;;6293441;28;20232;-54
2022/11/14 15:43:49;;;;;;;31.50;24.03;;;9.70;1.00;;;;;;6295835;28;20289;-53
2022/11/14 15:46:52;;;;;;;30.37;24.40;;;9.60;1.00;;;;;;6295011;28;20760;-55
2022/11/14 15:50:01;;;;;;;34.77;26.20;;;9.60;1.00;;;;;;6305100;28;20232;-55
2022/11/14 15:53:06;;;;;;;32.27;24.20;;;9.50;1.00;;;;;;6297857;28;20245;-55
2022/11/14 15:56:11;;;;;;;32.37;24.97;;;9.40;1.00;;;;;;6299636;28;20438;-55
2022/11/14 15:59:16;;;;;;;33.40;25.87;;;9.40;1.00;;;;;;6305133;28;20236;-55
2022/11/14 16:02:21;;;;;;;31.43;25.10;;;9.30;1.00;;;;;;6299197;28;20255;-55
2022/11/14 16:05:27;;;;;;;31.23;25.67;;;9.20;1.00;;;;;;6283319;28;20235;-53
2022/11/14 16:08:30;;;;;;;34.73;26.40;;;9.20;1.00;;;;;;6303083;28;20713;-54
2022/11/14 16:11:40;;;;;;;33.73;24.87;;;9.10;1.00;;;;;;6296087;28;20344;-55
2022/11/14 16:14:44;;;;;;;34.37;26.90;;;9.10;1.00;;;;;;6303215;28;20229;-55
2022/11/14 16:17:50;;;;;;;35.70;27.30;;;9.10;1.00;;;;;;6289731;28;20232;-54
2022/11/14 16:20:57;;;;;;;33.30;25.43;;;9.00;1.00;;;;;;6298105;28;20241;-55
2022/11/14 16:24:02;;;;;;;30.93;25.47;;;9.00;1.00;;;;;;6296953;28;20248;-54
2022/11/14 16:27:05;;;;;;;32.53;24.97;;;8.90;1.00;;;;;;6301515;28;20247;-54
2022/11/14 16:30:11;;;;;;;35.73;26.33;;;8.90;1.00;;;;;;6289205;28;20258;-55
2022/11/14 16:33:14;;;;;;;34.83;24.70;;;8.90;1.00;;;;;;6289355;28;20711;-54